createdAt,value
2017-12-10T00:01:11.158Z,2.70
2017-12-10T00:03:38.815Z,2.50
2017-12-10T00:06:06.512Z,2.60
2017-12-10T00:08:34.485Z,2.60
2017-12-10T00:11:02.357Z,2.70
2017-12-10T00:13:30.033Z,2.50
2017-12-10T00:15:57.697Z,2.60
2017-12-10T00:18:26.157Z,2.70
2017-12-10T00:20:53.853Z,2.50
2017-12-10T00:23:21.559Z,2.60
2017-12-10T00:25:49.258Z,2.60
2017-12-10T00:28:16.922Z,2.60
2017-12-10T00:30:44.621Z,2.60
2017-12-10T00:33:12.251Z,2.60
2017-12-10T00:35:40.963Z,2.60
2017-12-10T00:38:08.617Z,2.30
2017-12-10T00:40:36.316Z,2.60
2017-12-10T00:43:03.975Z,2.60
2017-12-10T00:45:31.661Z,2.60
2017-12-10T00:47:59.373Z,2.30
2017-12-10T00:50:27.041Z,2.60
2017-12-10T00:52:54.750Z,2.60
2017-12-10T00:55:22.415Z,2.60
2017-12-10T00:57:50.069Z,2.50
2017-12-10T01:00:17.761Z,2.40
2017-12-10T01:02:45.466Z,2.60
2017-12-10T01:05:13.170Z,2.50
2017-12-10T01:07:41.631Z,2.00
2017-12-10T01:10:09.806Z,2.30
2017-12-10T01:12:39.278Z,2.10
2017-12-10T01:15:06.997Z,2.50
2017-12-10T01:17:35.423Z,2.00
2017-12-10T01:20:03.085Z,2.30
2017-12-10T01:22:30.945Z,2.60
2017-12-10T01:24:58.606Z,2.40
2017-12-10T01:27:26.298Z,2.20
2017-12-10T01:29:55.502Z,2.20
2017-12-10T01:35:14.453Z,2.00
2017-12-10T01:37:42.166Z,2.00
2017-12-10T01:40:09.826Z,2.00
2017-12-10T01:42:38.154Z,2.00
2017-12-10T01:45:05.859Z,2.00
2017-12-10T01:47:33.550Z,2.00
2017-12-10T01:50:01.442Z,2.00
2017-12-10T01:52:29.154Z,2.10
2017-12-10T01:54:57.162Z,2.40
2017-12-10T01:57:24.821Z,2.30
2017-12-10T01:59:52.531Z,1.90
2017-12-10T02:02:20.970Z,2.20
2017-12-10T02:04:48.661Z,2.10
2017-12-10T02:07:17.124Z,1.90
2017-12-10T02:09:44.777Z,2.00
2017-12-10T02:12:12.481Z,2.30
2017-12-10T02:14:40.207Z,2.00
2017-12-10T02:17:07.873Z,2.20
2017-12-10T02:19:35.577Z,2.00
2017-12-10T02:22:03.253Z,2.30
2017-12-10T02:24:30.943Z,2.00
2017-12-10T02:26:58.649Z,2.00
2017-12-10T02:29:26.346Z,2.00
2017-12-10T02:31:54.042Z,2.10
2017-12-10T02:34:21.739Z,1.90
2017-12-10T02:36:49.428Z,2.10
2017-12-10T02:39:17.312Z,2.00
2017-12-10T02:41:45.073Z,2.00
2017-12-10T02:44:12.730Z,2.30
2017-12-10T02:46:40.614Z,2.10
2017-12-10T02:49:08.301Z,1.90
2017-12-10T02:51:35.997Z,2.20
2017-12-10T02:54:03.680Z,1.90
2017-12-10T02:56:31.381Z,1.70
2017-12-10T02:59:00.541Z,2.30
2017-12-10T03:01:28.237Z,2.30
2017-12-10T03:03:55.932Z,2.10
2017-12-10T03:06:23.585Z,1.90
2017-12-10T03:08:51.276Z,1.90
2017-12-10T03:11:18.942Z,2.10
2017-12-10T03:13:46.637Z,2.30
2017-12-10T03:16:15.067Z,2.10
2017-12-10T03:18:45.352Z,2.10
2017-12-10T03:21:13.047Z,1.70
2017-12-10T03:23:40.745Z,1.80
2017-12-10T03:26:08.410Z,2.20
2017-12-10T03:28:37.618Z,1.80
2017-12-10T03:31:05.270Z,2.10
2017-12-10T03:33:32.969Z,2.00
2017-12-10T03:36:00.709Z,1.80
2017-12-10T03:38:28.358Z,2.20
2017-12-10T03:40:56.053Z,2.20
2017-12-10T03:43:24.066Z,2.30
2017-12-10T03:45:51.727Z,2.10
2017-12-10T03:48:19.381Z,2.00
2017-12-10T03:50:47.073Z,1.90
2017-12-10T03:53:15.736Z,2.00
2017-12-10T03:55:43.428Z,2.10
2017-12-10T03:58:11.081Z,2.20
2017-12-10T04:00:38.980Z,2.30
2017-12-10T04:03:06.632Z,1.90
2017-12-10T04:05:34.285Z,2.20
2017-12-10T04:08:01.953Z,2.00
2017-12-10T04:10:29.657Z,1.70
2017-12-10T04:12:57.294Z,2.20
2017-12-10T04:15:24.961Z,1.70
2017-12-10T04:17:52.653Z,2.30
2017-12-10T04:20:20.485Z,1.30
2017-12-10T04:22:48.402Z,1.70
2017-12-10T04:25:16.054Z,1.60
2017-12-10T04:27:44.799Z,1.90
2017-12-10T04:30:12.561Z,1.80
2017-12-10T04:32:40.225Z,1.90
2017-12-10T04:35:08.015Z,1.70
2017-12-10T04:37:35.761Z,1.90
2017-12-10T04:40:03.420Z,1.70
2017-12-10T04:42:31.121Z,1.60
2017-12-10T04:44:58.809Z,1.70
2017-12-10T04:47:26.812Z,1.90
2017-12-10T04:49:54.490Z,1.70
2017-12-10T04:52:22.341Z,1.60
2017-12-10T04:54:50.272Z,1.70
2017-12-10T04:57:17.957Z,1.80
2017-12-10T04:59:45.617Z,1.70
2017-12-10T05:02:13.314Z,2.00
2017-12-10T05:04:41.013Z,2.30
2017-12-10T05:07:08.713Z,2.10
2017-12-10T05:09:36.405Z,2.00
2017-12-10T05:12:04.837Z,1.70
2017-12-10T05:14:32.537Z,1.90
2017-12-10T05:17:00.205Z,1.90
2017-12-10T05:19:28.673Z,2.10
2017-12-10T05:21:56.325Z,2.00
2017-12-10T05:24:24.029Z,2.00
2017-12-10T05:26:51.698Z,1.70
2017-12-10T05:29:19.357Z,1.70
2017-12-10T05:31:47.057Z,1.60
2017-12-10T05:34:14.716Z,1.70
2017-12-10T05:36:42.417Z,1.70
2017-12-10T05:39:11.153Z,1.80
2017-12-10T05:41:38.848Z,2.10
2017-12-10T05:44:06.553Z,1.80
2017-12-10T05:46:34.349Z,1.70
2017-12-10T05:49:02.041Z,1.70
2017-12-10T05:51:30.449Z,1.90
2017-12-10T05:53:58.158Z,1.70
2017-12-10T05:56:26.020Z,1.80
2017-12-10T05:58:53.705Z,1.70
2017-12-10T06:01:21.630Z,2.00
2017-12-10T06:03:49.321Z,2.00
2017-12-10T06:06:17.010Z,1.90
2017-12-10T06:08:44.834Z,1.80
2017-12-10T06:11:12.682Z,1.60
2017-12-10T06:13:40.449Z,1.70
2017-12-10T06:16:08.208Z,1.90
2017-12-10T06:18:35.879Z,1.70
2017-12-10T06:21:03.567Z,1.90
2017-12-10T06:23:31.222Z,1.80
2017-12-10T06:25:59.670Z,1.80
2017-12-10T06:28:27.349Z,1.80
2017-12-10T06:30:55.777Z,1.70
2017-12-10T06:33:23.689Z,1.90
2017-12-10T06:35:51.376Z,1.70
2017-12-10T06:38:19.033Z,1.70
2017-12-10T06:40:47.598Z,2.00
2017-12-10T06:43:15.358Z,1.80
2017-12-10T06:45:43.090Z,1.90
2017-12-10T06:48:10.741Z,1.50
2017-12-10T06:50:38.402Z,1.70
2017-12-10T06:53:06.188Z,1.70
2017-12-10T06:55:33.837Z,1.80
2017-12-10T06:58:01.838Z,1.40
2017-12-10T07:00:29.493Z,1.40
2017-12-10T07:02:57.180Z,1.40
2017-12-10T07:05:26.068Z,1.20
2017-12-10T07:07:53.733Z,1.30
2017-12-10T07:10:21.443Z,1.20
2017-12-10T07:12:49.211Z,1.20
2017-12-10T07:15:16.869Z,1.10
2017-12-10T07:17:44.736Z,1.20
2017-12-10T07:20:12.413Z,1.20
2017-12-10T07:22:40.134Z,1.20
2017-12-10T07:25:07.814Z,1.20
2017-12-10T07:27:35.456Z,1.20
2017-12-10T07:30:03.177Z,1.20
2017-12-10T07:32:30.885Z,1.10
2017-12-10T07:34:58.689Z,1.30
2017-12-10T07:37:26.350Z,1.20
2017-12-10T07:39:54.056Z,1.20
2017-12-10T07:42:21.714Z,1.50
2017-12-10T07:44:49.472Z,1.50
2017-12-10T07:47:17.195Z,1.60
2017-12-10T07:49:44.873Z,1.40
2017-12-10T07:52:12.575Z,1.70
2017-12-10T07:54:40.287Z,1.80
2017-12-10T07:57:07.949Z,1.70
2017-12-10T07:59:35.670Z,1.50
2017-12-10T08:02:03.340Z,1.90
2017-12-10T08:04:31.029Z,1.70
2017-12-10T08:06:59.073Z,1.80
2017-12-10T08:09:26.724Z,2.00
2017-12-10T08:11:54.436Z,1.80
2017-12-10T08:14:22.393Z,2.00
2017-12-10T08:16:50.057Z,1.80
2017-12-10T08:19:18.105Z,1.90
2017-12-10T08:21:45.765Z,2.00
2017-12-10T08:24:14.513Z,1.70
2017-12-10T08:26:42.328Z,1.70
2017-12-10T08:29:10.087Z,1.80
2017-12-10T08:31:38.212Z,1.90
2017-12-10T08:34:06.729Z,1.70
2017-12-10T08:36:35.545Z,1.80
2017-12-10T08:39:03.985Z,1.70
2017-12-10T08:41:31.787Z,2.10
2017-12-10T08:44:01.270Z,1.70
2017-12-10T08:46:28.967Z,2.10
2017-12-10T08:48:58.535Z,2.30
2017-12-10T08:51:27.966Z,2.00
2017-12-10T08:53:56.424Z,2.00
2017-12-10T08:56:25.347Z,2.10
2017-12-10T08:58:54.101Z,1.70
2017-12-10T09:01:21.763Z,2.00
2017-12-10T09:03:49.478Z,1.80
2017-12-10T09:06:17.143Z,1.90
2017-12-10T09:08:44.819Z,1.80
2017-12-10T09:11:12.540Z,1.80
2017-12-10T09:13:40.358Z,2.00
2017-12-10T09:16:08.411Z,2.40
2017-12-10T09:18:36.613Z,1.90
2017-12-10T09:21:04.474Z,2.00
2017-12-10T09:23:32.145Z,2.10
2017-12-10T09:25:59.867Z,2.00
2017-12-10T09:28:27.569Z,2.40
2017-12-10T09:30:55.997Z,2.40
2017-12-10T09:33:24.089Z,2.10
2017-12-10T09:35:51.789Z,2.30
2017-12-10T09:38:19.496Z,2.00
2017-12-10T09:40:47.149Z,2.10
2017-12-10T09:43:15.305Z,2.00
2017-12-10T09:45:42.961Z,2.00
2017-12-10T09:48:11.951Z,2.00
2017-12-10T09:50:39.856Z,2.20
2017-12-10T09:53:07.625Z,2.10
2017-12-10T09:55:35.327Z,2.00
2017-12-10T09:58:03.995Z,2.00
2017-12-10T10:00:31.699Z,2.20
2017-12-10T10:02:59.384Z,2.40
2017-12-10T10:05:27.078Z,2.40
2017-12-10T10:07:54.877Z,2.30
2017-12-10T10:10:23.381Z,2.20
2017-12-10T10:12:51.529Z,2.40
2017-12-10T10:15:19.486Z,2.40
2017-12-10T10:17:47.191Z,2.20
2017-12-10T10:20:14.842Z,2.20
2017-12-10T10:22:42.528Z,2.40
2017-12-10T10:25:10.241Z,2.60
2017-12-10T10:27:37.910Z,2.60
2017-12-10T10:30:05.814Z,2.20
2017-12-10T10:32:35.246Z,2.20
2017-12-10T10:35:05.510Z,2.30
2017-12-10T10:37:35.131Z,2.20
2017-12-10T10:40:04.706Z,2.30
2017-12-10T10:42:34.315Z,2.20
2017-12-10T10:45:03.988Z,2.30
2017-12-10T10:47:33.548Z,2.80
2017-12-10T10:50:03.162Z,2.80
2017-12-10T10:52:32.400Z,2.40
2017-12-10T10:55:02.335Z,2.30
2017-12-10T10:57:31.951Z,2.20
2017-12-10T11:00:01.974Z,2.60
2017-12-10T11:02:31.677Z,2.60
2017-12-10T11:05:01.506Z,2.30
2017-12-10T11:07:31.364Z,2.20
2017-12-10T11:10:00.963Z,2.40
2017-12-10T11:12:31.122Z,2.30
2017-12-10T11:15:01.313Z,2.20
2017-12-10T11:17:31.080Z,2.40
2017-12-10T11:20:01.219Z,2.40
2017-12-10T11:22:31.757Z,2.10
2017-12-10T11:25:02.108Z,2.60
2017-12-10T11:27:32.379Z,2.30
2017-12-10T11:30:02.258Z,2.20
2017-12-10T11:32:31.815Z,2.40
2017-12-10T11:35:01.690Z,2.20
2017-12-10T11:37:31.347Z,2.30
2017-12-10T11:40:02.348Z,2.20
2017-12-10T11:42:32.986Z,2.30
2017-12-10T11:45:02.828Z,2.20
2017-12-10T11:47:35.558Z,2.40
2017-12-10T11:50:05.982Z,2.40
2017-12-10T11:52:35.971Z,2.40
2017-12-10T11:55:05.632Z,2.20
2017-12-10T11:57:34.750Z,2.60
2017-12-10T12:00:04.389Z,2.70
2017-12-10T12:02:34.226Z,2.80
2017-12-10T12:05:04.630Z,2.90
2017-12-10T12:07:34.462Z,2.60
2017-12-10T12:10:05.998Z,2.20
2017-12-10T12:12:34.687Z,2.40
2017-12-10T12:15:04.126Z,2.30
2017-12-10T12:17:34.033Z,2.60
2017-12-10T12:20:04.139Z,2.20
2017-12-10T12:22:34.101Z,2.30
2017-12-10T12:25:03.877Z,2.20
2017-12-10T12:27:35.542Z,2.20
2017-12-10T12:30:05.450Z,2.30
2017-12-10T12:32:35.170Z,2.00
2017-12-10T12:35:04.779Z,2.20
2017-12-10T12:37:34.784Z,2.30
2017-12-10T12:40:04.706Z,2.30
2017-12-10T12:42:35.637Z,2.20
2017-12-10T12:45:06.237Z,2.20
2017-12-10T12:47:36.240Z,2.40
2017-12-10T12:50:07.735Z,2.00
2017-12-10T12:52:38.372Z,2.10
2017-12-10T12:55:09.001Z,2.00
2017-12-10T12:57:39.058Z,2.40
2017-12-10T13:00:08.967Z,1.90
2017-12-10T13:02:38.313Z,1.90
2017-12-10T13:05:08.020Z,2.00
2017-12-10T13:07:37.889Z,2.00
2017-12-10T13:10:07.239Z,2.00
2017-12-10T13:12:36.571Z,1.70
2017-12-10T13:15:06.904Z,1.70
2017-12-10T13:17:36.587Z,1.80
2017-12-10T13:20:05.806Z,2.00
2017-12-10T13:22:34.218Z,2.00
2017-12-10T13:25:04.426Z,2.00
2017-12-10T13:27:34.804Z,1.50
2017-12-10T13:30:03.107Z,1.90
2017-12-10T13:32:31.295Z,1.70
2017-12-10T13:35:00.203Z,1.50
2017-12-10T13:37:29.509Z,1.80
2017-12-10T13:39:58.021Z,1.60
2017-12-10T13:42:27.484Z,1.50
2017-12-10T13:44:56.566Z,1.70
2017-12-10T13:47:25.412Z,1.40
2017-12-10T13:49:53.536Z,1.40
2017-12-10T13:52:22.186Z,1.40
2017-12-10T13:54:50.292Z,1.40
2017-12-10T13:57:18.363Z,1.20
2017-12-10T13:59:46.717Z,1.40
2017-12-10T14:02:14.952Z,1.70
2017-12-10T14:04:43.800Z,1.80
2017-12-10T14:07:11.973Z,1.50
2017-12-10T14:09:39.946Z,1.70
2017-12-10T14:12:08.009Z,1.70
2017-12-10T14:14:35.999Z,1.70
2017-12-10T14:17:03.945Z,1.40
2017-12-10T14:19:31.931Z,1.40
2017-12-10T14:21:59.761Z,1.40
2017-12-10T14:24:27.445Z,1.20
2017-12-10T14:26:55.159Z,1.20
2017-12-10T14:29:22.980Z,1.20
2017-12-10T14:31:50.632Z,1.20
2017-12-10T14:34:18.329Z,1.20
2017-12-10T14:36:47.472Z,1.20
2017-12-10T14:39:15.257Z,1.20
2017-12-10T14:41:42.957Z,1.20
2017-12-10T14:44:10.781Z,1.20
2017-12-10T14:46:38.518Z,1.20
2017-12-10T14:49:06.310Z,1.20
2017-12-10T14:51:34.162Z,1.40
2017-12-10T14:54:01.857Z,1.40
2017-12-10T14:56:30.803Z,1.80
2017-12-10T14:58:58.679Z,1.20
2017-12-10T15:01:26.374Z,1.50
2017-12-10T15:03:54.025Z,1.70
2017-12-10T15:06:21.717Z,1.20
2017-12-10T15:08:49.827Z,1.20
2017-12-10T15:11:17.471Z,1.20
2017-12-10T15:13:45.172Z,1.10
2017-12-10T15:16:12.819Z,1.20
2017-12-10T15:18:40.761Z,1.20
2017-12-10T15:21:08.452Z,1.20
2017-12-10T15:23:36.117Z,1.40
2017-12-10T15:26:04.086Z,1.10
2017-12-10T15:28:31.770Z,1.50
2017-12-10T15:31:00.504Z,1.40
2017-12-10T15:33:28.176Z,1.60
2017-12-10T15:35:59.173Z,1.20
2017-12-10T15:38:27.165Z,1.20
2017-12-10T15:40:55.230Z,1.10
2017-12-10T15:43:23.242Z,1.10
2017-12-10T15:45:50.909Z,1.30
2017-12-10T15:48:18.677Z,0.90
2017-12-10T15:50:46.392Z,0.90
2017-12-10T15:53:14.053Z,1.00
2017-12-10T15:55:41.778Z,0.90
2017-12-10T15:58:10.275Z,0.90
2017-12-10T16:00:37.938Z,0.80
2017-12-10T16:03:05.641Z,1.20
2017-12-10T16:05:33.322Z,0.90
2017-12-10T16:08:01.261Z,0.70
2017-12-10T16:10:28.922Z,1.10
2017-12-10T16:12:56.613Z,0.70
2017-12-10T16:15:24.281Z,0.90
2017-12-10T16:17:52.741Z,0.70
2017-12-10T16:20:20.817Z,0.80
2017-12-10T16:22:48.517Z,1.00
2017-12-10T16:25:16.508Z,0.90
2017-12-10T16:27:44.287Z,0.70
2017-12-10T16:30:11.939Z,0.70
2017-12-10T16:32:39.628Z,0.70
2017-12-10T16:35:07.317Z,0.70
2017-12-10T16:37:35.965Z,0.70
2017-12-10T16:40:04.409Z,0.60
2017-12-10T16:42:32.095Z,0.90
2017-12-10T16:44:59.777Z,0.70
2017-12-10T16:47:27.436Z,0.70
2017-12-10T16:49:56.641Z,0.70
2017-12-10T16:52:24.345Z,0.40
2017-12-10T16:54:52.021Z,0.50
2017-12-10T16:57:19.725Z,0.40
2017-12-10T16:59:48.633Z,0.40
2017-12-10T17:02:17.061Z,0.40
2017-12-10T17:04:44.754Z,0.60
2017-12-10T17:07:12.409Z,0.40
2017-12-10T17:09:40.060Z,0.30
2017-12-10T17:12:07.762Z,0.60
2017-12-10T17:14:35.461Z,0.40
2017-12-10T17:17:03.214Z,0.30
2017-12-10T17:19:30.862Z,0.60
2017-12-10T17:21:58.539Z,0.20
2017-12-10T17:24:26.237Z,0.40
2017-12-10T17:26:53.937Z,0.40
2017-12-10T17:29:25.229Z,0.20
2017-12-10T17:31:56.975Z,0.10
2017-12-10T17:34:28.112Z,0.20
2017-12-10T17:36:59.900Z,0.10
2017-12-10T17:39:31.180Z,0.10
2017-12-10T17:42:04.901Z,0.10
2017-12-10T17:44:36.559Z,0.00
2017-12-10T17:47:07.559Z,0.20
2017-12-10T17:49:39.401Z,0.20
2017-12-10T17:52:14.053Z,0.10
2017-12-10T17:54:46.832Z,-0.10
2017-12-10T17:57:17.712Z,0.10
2017-12-10T17:59:46.136Z,0.20
2017-12-10T18:02:17.123Z,0.10
2017-12-10T18:04:47.125Z,0.10
2017-12-10T18:07:19.518Z,0.20
2017-12-10T18:09:50.486Z,0.10
2017-12-10T18:12:19.194Z,0.10
2017-12-10T18:14:46.905Z,0.00
2017-12-10T18:17:14.593Z,0.20
2017-12-10T18:19:45.313Z,0.10
2017-12-10T18:22:13.894Z,0.20
2017-12-10T18:24:45.158Z,0.20
2017-12-10T18:27:17.251Z,0.20
2017-12-10T18:29:47.345Z,0.20
2017-12-10T18:32:15.185Z,0.10
2017-12-10T18:34:45.975Z,0.10
2017-12-10T18:37:17.036Z,0.10
2017-12-10T18:39:47.855Z,0.10
2017-12-10T18:42:19.687Z,0.20
2017-12-10T18:44:47.501Z,0.10
2017-12-10T18:47:15.241Z,0.10
2017-12-10T18:49:42.997Z,0.10
2017-12-10T18:52:10.706Z,0.20
2017-12-10T18:54:38.447Z,0.10
2017-12-10T18:57:06.146Z,0.20
2017-12-10T18:59:33.847Z,0.10
2017-12-10T19:02:01.536Z,0.10
2017-12-10T19:04:29.233Z,0.20
2017-12-10T19:06:57.701Z,0.10
2017-12-10T19:09:25.433Z,0.10
2017-12-10T19:11:53.196Z,0.20
2017-12-10T19:14:21.470Z,0.10
2017-12-10T19:16:49.173Z,0.10
2017-12-10T19:19:16.838Z,-0.10
2017-12-10T19:21:44.553Z,-0.10
2017-12-10T19:24:12.246Z,0.10
2017-12-10T19:26:39.961Z,0.10
2017-12-10T19:29:07.906Z,0.20
2017-12-10T19:31:35.628Z,0.10
2017-12-10T19:34:04.046Z,0.20
2017-12-10T19:36:31.968Z,0.10
2017-12-10T19:38:59.819Z,-0.10
2017-12-10T19:41:27.478Z,0.00
2017-12-10T19:43:55.343Z,-0.10
2017-12-10T19:46:23.380Z,-0.10
2017-12-10T19:48:51.228Z,0.00
2017-12-10T19:51:19.742Z,-0.10
2017-12-10T19:53:48.462Z,-0.10
2017-12-10T19:56:16.933Z,0.10
2017-12-10T19:58:45.241Z,0.10
2017-12-10T20:01:13.712Z,-0.10
2017-12-10T20:03:42.005Z,-0.10
2017-12-10T20:06:10.503Z,-0.10
2017-12-10T20:08:38.203Z,-0.10
2017-12-10T20:11:05.893Z,-0.10
2017-12-10T20:13:33.589Z,0.10
2017-12-10T20:16:01.876Z,0.00
2017-12-10T20:18:30.130Z,0.00
2017-12-10T20:20:57.789Z,0.00
2017-12-10T20:23:25.499Z,-0.10
2017-12-10T20:25:53.191Z,-0.10
2017-12-10T20:28:21.620Z,0.00
2017-12-10T20:30:49.314Z,0.00
2017-12-10T20:33:17.793Z,-0.10
2017-12-10T20:35:45.657Z,-0.10
2017-12-10T20:38:13.349Z,-0.10
2017-12-10T20:40:41.813Z,-0.10
2017-12-10T20:43:09.935Z,-0.20
2017-12-10T20:45:38.280Z,-0.20
2017-12-10T20:48:06.741Z,-0.10
2017-12-10T20:50:34.709Z,0.10
2017-12-10T20:53:03.185Z,-0.10
2017-12-10T20:55:31.205Z,-0.30
2017-12-10T20:57:58.930Z,-0.30
2017-12-10T21:00:27.389Z,-0.10
2017-12-10T21:02:55.846Z,-0.10
2017-12-10T21:05:23.558Z,-0.10
2017-12-10T21:07:51.226Z,0.00
2017-12-10T21:10:19.832Z,-0.10
2017-12-10T21:12:47.517Z,-0.10
2017-12-10T21:15:15.209Z,0.10
2017-12-10T21:17:42.922Z,-0.30
2017-12-10T21:20:11.992Z,-0.40
2017-12-10T21:22:39.903Z,0.00
2017-12-10T21:25:08.073Z,-0.60
2017-12-10T21:27:36.133Z,-0.30
2017-12-10T21:30:04.614Z,-0.10
2017-12-10T21:32:32.309Z,-0.30
2017-12-10T21:34:59.987Z,0.00
2017-12-10T21:37:28.449Z,-0.40
2017-12-10T21:39:56.387Z,-0.20
2017-12-10T21:42:24.086Z,-0.10
2017-12-10T21:44:51.795Z,-0.20
2017-12-10T21:47:22.737Z,-0.10
2017-12-10T21:49:50.613Z,-0.10
2017-12-10T21:52:18.314Z,-0.10
2017-12-10T21:54:46.773Z,-0.20
2017-12-10T21:57:14.465Z,-0.30
2017-12-10T21:59:42.933Z,-0.20
2017-12-10T22:02:11.374Z,-0.50
2017-12-10T22:04:39.077Z,-0.50
2017-12-10T22:07:07.006Z,-0.40
2017-12-10T22:09:34.706Z,-0.30
2017-12-10T22:12:03.266Z,-0.40
2017-12-10T22:14:30.970Z,-0.40
2017-12-10T22:16:58.694Z,-0.20
2017-12-10T22:19:27.153Z,-0.10
2017-12-10T22:21:55.748Z,-0.30
2017-12-10T22:24:23.494Z,-0.30
2017-12-10T22:26:51.208Z,-0.10
2017-12-10T22:29:18.906Z,0.00
2017-12-10T22:31:46.567Z,-0.20
2017-12-10T22:34:14.237Z,0.00
2017-12-10T22:36:41.939Z,-0.20
2017-12-10T22:39:09.633Z,-0.10
2017-12-10T22:41:37.338Z,0.00
2017-12-10T22:44:05.783Z,-0.30
2017-12-10T22:46:33.489Z,-0.30
2017-12-10T22:49:01.149Z,-0.20
2017-12-10T22:51:29.586Z,-0.60
2017-12-10T22:53:57.245Z,-0.30
2017-12-10T22:56:25.473Z,-0.30
2017-12-10T22:58:53.088Z,-0.30
2017-12-10T23:01:20.840Z,-0.30
2017-12-10T23:03:48.497Z,-0.40
2017-12-10T23:06:16.162Z,-0.30
2017-12-10T23:08:43.837Z,-0.30
2017-12-10T23:11:11.495Z,-0.50
2017-12-10T23:13:51.059Z,-0.50
2017-12-10T23:16:32.230Z,-0.50
2017-12-10T23:19:00.169Z,-0.40
2017-12-10T23:21:27.831Z,-0.20
2017-12-10T23:23:55.613Z,0.00
2017-12-10T23:26:23.234Z,-0.30
2017-12-10T23:28:50.889Z,-0.10
2017-12-10T23:31:18.583Z,-0.30
2017-12-10T23:33:46.233Z,0.00
2017-12-10T23:36:13.942Z,-0.30
2017-12-10T23:38:41.645Z,-0.10
2017-12-10T23:41:09.331Z,-0.40
2017-12-10T23:43:36.982Z,-0.10
2017-12-10T23:46:04.687Z,-0.50
2017-12-10T23:48:32.393Z,-0.20
2017-12-10T23:51:00.017Z,-0.30
2017-12-10T23:53:27.684Z,-0.10
2017-12-10T23:55:55.383Z,-0.10
2017-12-10T23:58:23.045Z,-0.20
